Time;durP1;ratioP1;P1;durP2;ratioP2;P2;SDS_P1;SDS_P2;PMS_P1;PMS_P2;Temp;Humidity;BMP_temperature;BMP_pressure;BME280_temperature;BME280_humidity;BME280_pressure;Samples;Min_cycle;Max_cycle;Signal;HPM_P1;HPM_P2
2021/05/29 00:00:49;;;;;;;1.38;0.73;;;13.70;87.70;;;;;;5055351;28;20362;-76
2021/05/29 00:03:15;;;;;;;0.15;0.15;;;13.80;87.30;;;;;;5037254;28;20065;-76
2021/05/29 00:05:42;;;;;;;0.20;0.20;;;13.80;87.60;;;;;;5055051;28;20052;-76
2021/05/29 00:08:08;;;;;;;0.20;0.20;;;14.00;87.00;;;;;;5054001;28;20057;-76
2021/05/29 00:10:35;;;;;;;0.20;0.20;;;13.90;87.30;;;;;;5053892;28;20017;-76
2021/05/29 00:13:01;;;;;;;0.20;0.20;;;13.80;87.20;;;;;;5055244;28;20028;-76
2021/05/29 00:15:28;;;;;;;0.20;0.20;;;13.80;87.90;;;;;;5055161;28;20033;-75
2021/05/29 00:17:54;;;;;;;0.65;0.65;;;13.70;87.20;;;;;;5036792;28;20053;-76
2021/05/29 00:20:20;;;;;;;0.20;0.20;;;13.40;87.90;;;;;;5054914;28;20075;-76
2021/05/29 00:22:46;;;;;;;6.72;5.35;;;13.30;88.30;;;;;;5037046;28;20021;-76
2021/05/29 00:25:12;;;;;;;0.20;0.20;;;13.10;90.00;;;;;;5054821;28;20025;-76
2021/05/29 00:27:37;;;;;;;0.20;0.20;;;13.20;90.60;;;;;;5053456;28;20025;-76
2021/05/29 00:30:05;;;;;;;0.17;0.17;;;13.10;90.60;;;;;;5054721;28;20086;-76
2021/05/29 00:32:31;;;;;;;0.20;0.20;;;13.10;91.40;;;;;;5054678;28;20490;-76
2021/05/29 00:34:57;;;;;;;0.20;0.20;;;13.10;91.20;;;;;;5054912;28;20024;-76
2021/05/29 00:37:23;;;;;;;0.20;0.20;;;13.00;91.60;;;;;;5053200;28;20473;-75
2021/05/29 00:39:49;;;;;;;0.17;0.17;;;13.10;92.40;;;;;;5054462;28;20063;-76
2021/05/29 00:42:14;;;;;;;0.40;0.40;;;13.30;92.50;;;;;;5054186;28;20136;-76
2021/05/29 00:44:46;;;;;;;0.20;0.20;;;13.40;92.30;;;;;;5054645;28;20025;-76
2021/05/29 00:47:12;;;;;;;0.20;0.20;;;13.50;91.60;;;;;;5053005;28;20107;-76
2021/05/29 00:49:37;;;;;;;0.20;0.20;;;13.50;91.50;;;;;;5054533;28;20480;-76
2021/05/29 00:52:03;;;;;;;0.20;0.20;;;13.30;91.80;;;;;;5036400;28;20104;-76
2021/05/29 00:54:30;;;;;;;0.20;0.20;;;13.50;92.10;;;;;;5036448;28;20380;-76
2021/05/29 00:56:55;;;;;;;0.20;0.20;;;13.60;91.70;;;;;;5052785;28;20534;-76
2021/05/29 00:59:21;;;;;;;0.20;0.20;;;13.40;91.00;;;;;;5052936;28;20024;-76
2021/05/29 01:01:47;;;;;;;0.20;0.20;;;13.10;92.10;;;;;;5053970;28;20060;-76
2021/05/29 01:04:13;;;;;;;0.30;0.30;;;13.20;92.90;;;;;;5053080;28;20103;-76
2021/05/29 01:06:38;;;;;;;0.20;0.20;;;13.10;92.30;;;;;;5054040;28;20056;-76
2021/05/29 01:09:04;;;;;;;0.20;0.20;;;13.00;93.40;;;;;;5052802;28;20029;-75
2021/05/29 01:11:31;;;;;;;0.20;0.20;;;12.90;93.40;;;;;;5052934;28;20028;-76
2021/05/29 01:13:59;;;;;;;0.30;0.30;;;12.60;94.60;;;;;;5052831;28;20025;-76
2021/05/29 01:16:46;;;;;;;0.13;0.13;;;12.50;97.40;;;;;;5052533;28;20041;-75
2021/05/29 01:19:13;;;;;;;0.20;0.20;;;12.50;98.90;;;;;;5053573;28;20183;-76
2021/05/29 01:21:40;;;;;;;0.30;0.30;;;12.50;99.90;;;;;;5052597;28;20051;-76
2021/05/29 01:24:06;;;;;;;0.20;0.20;;;12.60;99.60;;;;;;5053778;28;20032;-76
2021/05/29 01:26:32;;;;;;;0.20;0.20;;;12.70;99.30;;;;;;5053648;28;20029;-76
2021/05/29 01:28:58;;;;;;;0.20;0.20;;;12.60;99.90;;;;;;5052414;28;20041;-76
2021/05/29 01:31:31;;;;;;;0.20;0.20;;;12.70;99.90;;;;;;5052183;28;20029;-75
2021/05/29 01:33:58;;;;;;;0.20;0.20;;;12.90;99.80;;;;;;5053739;28;20064;-76
2021/05/29 01:36:25;;;;;;;0.20;0.20;;;13.00;99.50;;;;;;5052062;28;20029;-76
2021/05/29 01:38:52;;;;;;;0.17;0.17;;;12.80;98.40;;;;;;5053377;28;20686;-75
2021/05/29 01:41:20;;;;;;;0.20;0.20;;;12.80;98.30;;;;;;5053170;28;20031;-76
2021/05/29 01:43:48;;;;;;;0.63;0.63;;;12.60;99.90;;;;;;5053463;28;20013;-76
2021/05/29 01:46:17;;;;;;;0.25;0.25;;;12.70;99.90;;;;;;5051822;28;20025;-76
2021/05/29 01:48:45;;;;;;;0.20;0.20;;;12.80;99.90;;;;;;5052086;28;20051;-76
2021/05/29 01:51:13;;;;;;;0.20;0.20;;;12.90;99.90;;;;;;5053165;28;20071;-76
2021/05/29 01:53:39;;;;;;;0.20;0.20;;;13.00;99.90;;;;;;5051954;28;20060;-76
2021/05/29 01:56:06;;;;;;;0.93;0.93;;;13.00;99.90;;;;;;5052038;28;20025;-75
2021/05/29 01:58:32;;;;;;;0.20;0.20;;;13.00;99.90;;;;;;5053002;28;20091;-75
2021/05/29 02:00:58;;;;;;;0.20;0.20;;;12.90;99.90;;;;;;5051347;28;20021;-76
2021/05/29 02:03:24;;;;;;;0.20;0.20;;;12.80;99.80;;;;;;5051739;28;20074;-75
2021/05/29 02:05:50;;;;;;;0.25;0.25;;;13.00;99.90;;;;;;5052888;28;20055;-76
2021/05/29 02:08:16;;;;;;;0.20;0.20;;;13.10;99.20;;;;;;5052896;28;20020;-76
2021/05/29 02:10:44;;;;;;;0.20;0.20;;;13.10;97.10;;;;;;5051523;28;20667;-77
2021/05/29 02:13:12;;;;;;;0.20;0.20;;;12.80;98.40;;;;;;5051606;28;20025;-75
2021/05/29 02:15:40;;;;;;;0.20;0.20;;;12.70;99.90;;;;;;5052622;28;20089;-76
2021/05/29 02:18:10;;;;;;;0.20;0.20;;;12.70;99.80;;;;;;5052792;28;20025;-76
2021/05/29 02:20:44;;;;;;;0.20;0.20;;;12.70;99.90;;;;;;5052758;28;20017;-76
2021/05/29 02:23:16;;;;;;;0.30;0.30;;;12.70;99.40;;;;;;5051476;28;20040;-76
2021/05/29 02:25:43;;;;;;;0.20;0.20;;;12.50;99.90;;;;;;5052580;28;20025;-76
2021/05/29 02:28:09;;;;;;;0.20;0.20;;;12.40;99.90;;;;;;5051311;28;20535;-76
2021/05/29 02:30:35;;;;;;;0.20;0.20;;;12.30;99.90;;;;;;5051087;28;20025;-76
2021/05/29 02:33:02;;;;;;;0.22;0.22;;;12.40;99.90;;;;;;5052375;28;20554;-76
2021/05/29 02:35:28;;;;;;;0.20;0.20;;;12.60;99.90;;;;;;5051076;28;20028;-76
2021/05/29 02:37:54;;;;;;;0.20;0.20;;;12.60;99.90;;;;;;5052294;28;20029;-76
2021/05/29 02:40:20;;;;;;;0.20;0.20;;;12.80;99.90;;;;;;5034337;28;20028;-76
2021/05/29 02:42:46;;;;;;;0.20;0.20;;;12.80;99.00;;;;;;5052039;28;20040;-76
2021/05/29 02:45:13;;;;;;;0.20;0.20;;;12.70;99.30;;;;;;5052110;28;20376;-76
2021/05/29 02:47:38;;;;;;;0.65;0.65;;;12.80;98.50;;;;;;5052251;28;20029;-76
2021/05/29 02:50:05;;;;;;;0.20;0.20;;;13.00;97.80;;;;;;5050773;28;20029;-76
2021/05/29 02:52:31;;;;;;;0.20;0.20;;;13.10;96.70;;;;;;5052214;28;20029;-76
2021/05/29 02:54:57;;;;;;;0.20;0.20;;;12.90;96.30;;;;;;5050919;28;20033;-76
2021/05/29 02:57:23;;;;;;;0.57;0.57;;;12.50;97.80;;;;;;5051973;28;20024;-76
2021/05/29 02:59:49;;;;;;;0.68;0.63;;;12.20;99.90;;;;;;5052011;28;20051;-76
2021/05/29 03:02:14;;;;;;;0.20;0.20;;;12.10;99.90;;;;;;5051956;28;20102;-76
2021/05/29 03:04:40;;;;;;;0.20;0.20;;;12.30;99.90;;;;;;5051993;28;20027;-76
2021/05/29 03:07:06;;;;;;;0.20;0.20;;;12.50;99.90;;;;;;5050532;28;20028;-75
2021/05/29 03:09:33;;;;;;;0.20;0.20;;;12.60;99.10;;;;;;5051869;28;20032;-75
2021/05/29 03:12:00;;;;;;;0.20;0.20;;;12.70;99.40;;;;;;5050965;28;20112;-73
2021/05/29 03:14:26;;;;;;;0.35;0.35;;;12.70;98.10;;;;;;5051828;28;20109;-73
2021/05/29 03:16:52;;;;;;;0.20;0.20;;;12.50;97.50;;;;;;5051659;28;20515;-73
2021/05/29 03:19:18;;;;;;;0.40;0.40;;;12.50;99.30;;;;;;5051837;28;20029;-73
2021/05/29 03:21:44;;;;;;;0.20;0.20;;;12.40;99.90;;;;;;5051782;28;20362;-73
2021/05/29 03:24:10;;;;;;;0.25;0.25;;;12.50;99.90;;;;;;5051862;28;20362;-73
2021/05/29 03:26:37;;;;;;;0.20;0.20;;;12.50;99.90;;;;;;5051608;28;20025;-74
2021/05/29 03:29:04;;;;;;;0.10;0.10;;;12.60;99.90;;;;;;5051712;28;20460;-73
2021/05/29 03:31:32;;;;;;;0.20;0.20;;;12.60;99.40;;;;;;5050390;28;20028;-74
2021/05/29 03:33:58;;;;;;;0.20;0.20;;;12.70;99.50;;;;;;5051776;28;20024;-73
2021/05/29 03:36:24;;;;;;;0.30;0.30;;;12.70;99.00;;;;;;5050249;28;20029;-73
2021/05/29 03:38:50;;;;;;;0.20;0.20;;;12.60;98.30;;;;;;5051513;28;20029;-73
2021/05/29 03:41:16;;;;;;;0.30;0.30;;;12.10;99.30;;;;;;5051456;28;20427;-73
2021/05/29 03:43:42;;;;;;;0.20;0.20;;;11.90;99.90;;;;;;5050274;28;20461;-73
2021/05/29 03:46:07;;;;;;;0.20;0.20;;;11.90;99.90;;;;;;5051410;28;20021;-73
2021/05/29 03:48:33;;;;;;;0.20;0.20;;;11.90;99.90;;;;;;5050172;28;20361;-73
2021/05/29 03:51:00;;;;;;;0.20;0.20;;;11.90;99.70;;;;;;5051235;28;20037;-73
2021/05/29 03:53:26;;;;;;;0.30;0.30;;;12.20;98.10;;;;;;5051533;28;20021;-73
2021/05/29 03:55:52;;;;;;;0.20;0.20;;;12.30;96.50;;;;;;5050419;28;20358;-73
2021/05/29 03:58:19;;;;;;;0.20;0.20;;;12.40;96.80;;;;;;5051434;28;20036;-73
2021/05/29 04:00:45;;;;;;;0.20;0.20;;;12.50;95.00;;;;;;5033541;28;20029;-73
2021/05/29 04:03:11;;;;;;;0.25;0.25;;;12.50;95.20;;;;;;5050118;28;20087;-73
2021/05/29 04:05:37;;;;;;;0.20;0.20;;;12.60;94.10;;;;;;5051164;28;20029;-73
2021/05/29 04:08:03;;;;;;;0.20;0.20;;;12.70;93.90;;;;;;5051363;28;20491;-73
2021/05/29 04:10:32;;;;;;;0.20;0.20;;;12.80;94.00;;;;;;5049909;28;20029;-73
2021/05/29 04:12:58;;;;;;;0.47;0.30;;;12.80;93.30;;;;;;5050089;28;20388;-73
2021/05/29 04:15:25;;;;;;;0.60;0.60;;;12.70;93.40;;;;;;5033455;28;20021;-73
2021/05/29 04:17:52;;;;;;;0.20;0.20;;;12.40;94.40;;;;;;5033293;28;20029;-73
2021/05/29 04:20:20;;;;;;;0.30;0.30;;;12.40;95.20;;;;;;5049995;28;20550;-73
2021/05/29 04:22:46;;;;;;;0.20;0.20;;;12.40;94.50;;;;;;5050467;28;20024;-74
2021/05/29 04:25:19;;;;;;;0.20;0.20;;;12.50;95.00;;;;;;5053669;28;20021;-73
2021/05/29 04:27:45;;;;;;;0.20;0.20;;;12.60;93.90;;;;;;5053497;28;20392;-73
2021/05/29 04:30:14;;;;;;;0.20;0.20;;;12.60;93.40;;;;;;5054711;28;20029;-73
2021/05/29 04:32:39;;;;;;;0.20;0.20;;;12.50;94.10;;;;;;5054663;28;20033;-73
2021/05/29 04:35:06;;;;;;;0.20;0.20;;;12.50;93.90;;;;;;5054731;28;20408;-73
2021/05/29 04:37:32;;;;;;;0.20;0.20;;;12.60;93.70;;;;;;5053231;28;20032;-73
2021/05/29 04:39:58;;;;;;;0.20;0.20;;;12.60;93.80;;;;;;5054695;28;20021;-73
2021/05/29 04:42:24;;;;;;;0.20;0.20;;;12.80;93.50;;;;;;5052973;28;20476;-73
2021/05/29 04:44:50;;;;;;;0.20;0.20;;;12.80;93.20;;;;;;5054578;28;20096;-73
2021/05/29 04:47:15;;;;;;;0.20;0.20;;;12.80;92.40;;;;;;5053083;28;20027;-73
2021/05/29 04:49:41;;;;;;;0.30;0.30;;;12.60;93.30;;;;;;5053286;28;20025;-73
2021/05/29 04:52:07;;;;;;;0.20;0.20;;;12.30;94.20;;;;;;5053193;28;20032;-73
2021/05/29 04:54:33;;;;;;;0.20;0.20;;;12.30;94.70;;;;;;5054501;28;20112;-73
2021/05/29 04:56:59;;;;;;;0.20;0.20;;;12.40;93.90;;;;;;5052748;28;20116;-73
2021/05/29 04:59:25;;;;;;;0.20;0.20;;;12.50;93.80;;;;;;5052944;28;20445;-73
2021/05/29 05:01:50;;;;;;;0.20;0.20;;;12.60;92.80;;;;;;5052897;28;20029;-74
2021/05/29 05:04:17;;;;;;;0.20;0.20;;;12.40;94.00;;;;;;5053014;28;20021;-73
2021/05/29 05:06:43;;;;;;;0.47;0.47;;;12.50;93.80;;;;;;5052710;28;20029;-73
2021/05/29 05:09:09;;;;;;;0.20;0.20;;;12.40;93.20;;;;;;5054069;28;20507;-75
2021/05/29 05:11:36;;;;;;;1.88;1.45;;;12.20;94.20;;;;;;5052446;28;20025;-76
2021/05/29 05:14:03;;;;;;;0.20;0.20;;;12.30;93.60;;;;;;5054068;28;20021;-76
2021/05/29 05:16:29;;;;;;;0.10;0.10;;;12.50;92.60;;;;;;5052526;28;20029;-76
2021/05/29 05:18:55;;;;;;;0.20;0.20;;;12.50;91.70;;;;;;5053951;28;20477;-76
2021/05/29 05:21:21;;;;;;;0.20;0.20;;;12.60;91.80;;;;;;5053824;28;20032;-75
2021/05/29 05:23:50;;;;;;;0.20;0.20;;;12.70;91.20;;;;;;5036044;28;20548;-76
2021/05/29 05:26:16;;;;;;;0.20;0.20;;;12.70;91.20;;;;;;5052302;28;20431;-76
2021/05/29 05:28:42;;;;;;;0.20;0.20;;;12.70;92.10;;;;;;5052430;28;20032;-76
2021/05/29 05:31:08;;;;;;;0.20;0.20;;;12.80;92.00;;;;;;5051783;28;20100;-76
2021/05/29 05:33:38;;;;;;;0.20;0.20;;;12.80;91.60;;;;;;5035288;28;20024;-76
2021/05/29 05:36:07;;;;;;;0.30;0.30;;;12.80;92.80;;;;;;5051238;28;20060;-76
2021/05/29 05:38:33;;;;;;;0.20;0.20;;;12.70;92.20;;;;;;5053372;28;20112;-76
2021/05/29 05:40:58;;;;;;;0.20;0.20;;;12.70;92.80;;;;;;5053008;28;20112;-76
2021/05/29 05:43:24;;;;;;;0.20;0.20;;;12.80;93.40;;;;;;5053456;28;20379;-76
2021/05/29 05:45:50;;;;;;;0.20;0.20;;;12.90;92.50;;;;;;5052031;28;20017;-75
2021/05/29 05:48:16;;;;;;;0.20;0.20;;;12.70;92.70;;;;;;5035398;28;20032;-76
2021/05/29 05:50:55;;;;;;;0.20;0.20;;;12.70;93.00;;;;;;5044842;28;20028;-76
2021/05/29 05:53:23;;;;;;;0.20;0.20;;;12.70;92.20;;;;;;5053567;28;20468;-76
2021/05/29 05:55:58;;;;;;;0.20;0.20;;;12.70;93.30;;;;;;5052971;28;20036;-76
2021/05/29 05:58:25;;;;;;;0.35;0.35;;;12.80;93.30;;;;;;5053019;28;20028;-75
2021/05/29 06:00:50;;;;;;;0.20;0.20;;;12.90;92.40;;;;;;5051805;28;20124;-76
2021/05/29 06:03:16;;;;;;;0.10;0.10;;;12.90;92.10;;;;;;5035763;28;20456;-76
2021/05/29 06:05:42;;;;;;;0.28;0.28;;;12.90;92.50;;;;;;5051910;28;20077;-76
2021/05/29 06:08:08;;;;;;;0.40;0.40;;;13.00;91.10;;;;;;5051876;28;20456;-76
2021/05/29 06:10:34;;;;;;;0.20;0.20;;;13.10;91.20;;;;;;5035170;28;20537;-76
2021/05/29 06:13:00;;;;;;;0.20;0.20;;;13.10;91.20;;;;;;5053099;28;20029;-77
2021/05/29 06:18:43;;;;;;;0.63;0.63;;;13.10;90.00;;;;;;5052852;28;20554;-76
2021/05/29 06:21:04;;;;;;;0.20;0.20;;;12.90;90.70;;;;;;5052585;28;20025;-75
2021/05/29 06:23:30;;;;;;;2.30;0.57;;;12.80;91.30;;;;;;5052856;28;20029;-77
2021/05/29 06:25:56;;;;;;;0.60;0.60;;;12.80;91.30;;;;;;5052629;28;20106;-76
2021/05/29 06:28:22;;;;;;;0.20;0.20;;;12.70;91.10;;;;;;5051649;28;20060;-76
2021/05/29 06:30:47;;;;;;;0.40;0.40;;;12.80;91.50;;;;;;5052672;28;20584;-76
2021/05/29 06:33:13;;;;;;;0.20;0.20;;;12.90;91.50;;;;;;5052857;28;20025;-77
2021/05/29 06:35:39;;;;;;;0.52;0.52;;;13.10;91.00;;;;;;5051237;28;20025;-76
2021/05/29 06:38:05;;;;;;;0.20;0.20;;;13.20;91.00;;;;;;5052503;28;20123;-76
2021/05/29 06:40:31;;;;;;;0.20;0.20;;;13.30;89.30;;;;;;5052384;28;20434;-76
2021/05/29 06:42:57;;;;;;;0.20;0.20;;;13.30;90.00;;;;;;5052609;28;20021;-76
2021/05/29 06:45:23;;;;;;;0.20;0.20;;;13.40;89.70;;;;;;5052587;28;20029;-76
2021/05/29 06:47:48;;;;;;;1.75;0.25;;;13.40;90.00;;;;;;5050785;28;20497;-77
2021/05/29 06:50:15;;;;;;;2.13;1.98;;;13.50;90.30;;;;;;5052280;28;20029;-77
2021/05/29 06:52:44;;;;;;;0.47;0.47;;;13.60;89.70;;;;;;5033314;28;20033;-76
2021/05/29 07:00:40;;;;;;;0.25;0.25;;;13.70;85.90;;;;;;5052301;28;20032;-77
2021/05/29 07:03:05;;;;;;;0.20;0.20;;;13.90;84.80;;;;;;5052113;28;20083;-76
2021/05/29 07:05:31;;;;;;;0.28;0.28;;;14.00;85.20;;;;;;5050622;28;20392;-75
2021/05/29 07:07:57;;;;;;;1.00;0.95;;;14.20;81.50;;;;;;5051602;28;20048;-75
2021/05/29 07:10:23;;;;;;;0.10;0.10;;;14.20;81.50;;;;;;5051959;28;20027;-76
2021/05/29 07:12:48;;;;;;;0.20;0.20;;;14.50;81.60;;;;;;5051563;28;20420;-75
2021/05/29 07:15:15;;;;;;;0.77;0.70;;;14.60;79.90;;;;;;5033846;28;20016;-75
2021/05/29 07:17:43;;;;;;;0.52;0.35;;;14.60;78.40;;;;;;5051479;28;20394;-75
2021/05/29 07:20:09;;;;;;;0.50;0.50;;;14.50;78.80;;;;;;5050161;28;20076;-76
2021/05/29 07:22:36;;;;;;;0.20;0.20;;;14.70;78.40;;;;;;5051787;28;20380;-76
2021/05/29 07:25:07;;;;;;;0.20;0.20;;;14.40;78.40;;;;;;5050378;28;20025;-76
2021/05/29 07:27:32;;;;;;;0.20;0.20;;;14.40;78.10;;;;;;5051810;28;20025;-76
2021/05/29 07:29:59;;;;;;;0.20;0.20;;;14.30;78.10;;;;;;5050491;28;20100;-77
2021/05/29 07:32:25;;;;;;;0.20;0.20;;;14.40;78.00;;;;;;5051830;28;20026;-76
2021/05/29 07:34:54;;;;;;;0.20;0.20;;;14.60;77.70;;;;;;5051753;28;20021;-76
2021/05/29 07:37:20;;;;;;;0.20;0.20;;;14.70;77.00;;;;;;5051365;28;20033;-76
2021/05/29 07:39:45;;;;;;;0.20;0.20;;;14.80;76.70;;;;;;5051554;28;20025;-76
2021/05/29 07:42:11;;;;;;;0.20;0.20;;;14.70;75.00;;;;;;5033566;28;20031;-76
2021/05/29 07:44:37;;;;;;;0.20;0.20;;;14.90;74.70;;;;;;5050353;28;20021;-76
2021/05/29 07:47:03;;;;;;;0.20;0.20;;;15.10;74.20;;;;;;5051409;28;20116;-76
2021/05/29 07:49:29;;;;;;;0.17;0.17;;;15.40;74.50;;;;;;5051439;28;20048;-77
2021/05/29 07:51:54;;;;;;;0.20;0.20;;;15.40;73.10;;;;;;5051508;28;20021;-77
2021/05/29 07:54:20;;;;;;;0.10;0.10;;;15.50;71.50;;;;;;5050442;28;20120;-76
2021/05/29 07:56:46;;;;;;;0.13;0.13;;;15.50;71.70;;;;;;5051334;28;20040;-76
2021/05/29 07:59:16;;;;;;;0.40;0.40;;;15.50;73.30;;;;;;5052821;28;20025;-76
2021/05/29 08:01:42;;;;;;;0.20;0.20;;;15.00;72.80;;;;;;5055183;28;20082;-76
2021/05/29 08:04:07;;;;;;;1.05;1.05;;;14.80;75.20;;;;;;5037476;28;20384;-76
2021/05/29 08:06:37;;;;;;;0.20;0.20;;;14.90;73.10;;;;;;5053869;28;20385;-76
2021/05/29 08:09:06;;;;;;;0.20;0.20;;;15.00;67.60;;;;;;5055293;28;20032;-77
2021/05/29 08:11:32;;;;;;;0.20;0.20;;;15.10;69.10;;;;;;5036487;28;20025;-76
2021/05/29 08:13:58;;;;;;;0.17;0.17;;;15.20;69.30;;;;;;5054964;28;20179;-76
2021/05/29 08:16:24;;;;;;;0.13;0.13;;;15.40;67.60;;;;;;5054854;28;20096;-76
2021/05/29 08:18:52;;;;;;;0.10;0.10;;;15.60;65.40;;;;;;5053507;28;20384;-76
2021/05/29 08:21:18;;;;;;;0.10;0.10;;;15.70;65.30;;;;;;5053618;28;20626;-76
2021/05/29 08:23:44;;;;;;;0.75;0.75;;;15.90;65.00;;;;;;5053176;28;20056;-76
2021/05/29 08:26:11;;;;;;;0.20;0.20;;;15.80;62.70;;;;;;5036954;28;20025;-76
2021/05/29 08:28:36;;;;;;;0.10;0.10;;;15.50;62.60;;;;;;5053737;28;20053;-77
2021/05/29 08:31:04;;;;;;;0.32;0.32;;;15.50;64.90;;;;;;5054575;28;20076;-76
2021/05/29 08:33:30;;;;;;;0.20;0.20;;;15.60;64.50;;;;;;5053440;28;20055;-76
2021/05/29 08:35:56;;;;;;;0.80;0.80;;;15.50;66.00;;;;;;5053103;28;20029;-76
2021/05/29 08:38:22;;;;;;;0.73;0.73;;;15.80;65.30;;;;;;5054469;28;20032;-77
2021/05/29 08:40:48;;;;;;;0.40;0.40;;;15.90;65.60;;;;;;5053253;28;20028;-76
2021/05/29 08:43:14;;;;;;;0.10;0.10;;;16.10;64.60;;;;;;5053241;28;20025;-76
2021/05/29 08:45:40;;;;;;;0.10;0.10;;;16.50;64.10;;;;;;5054324;28;20029;-76
2021/05/29 08:48:06;;;;;;;0.50;0.50;;;16.70;62.90;;;;;;5054590;28;20376;-76
2021/05/29 08:50:33;;;;;;;0.10;0.10;;;16.60;62.00;;;;;;5054286;28;20028;-77
2021/05/29 08:52:59;;;;;;;0.20;0.20;;;16.50;61.70;;;;;;5054105;28;20029;-76
2021/05/29 08:55:25;;;;;;;0.10;0.10;;;16.40;60.70;;;;;;5053235;28;20411;-76
2021/05/29 08:57:51;;;;;;;0.10;0.10;;;16.60;59.50;;;;;;5052899;28;20025;-76
2021/05/29 09:00:27;;;;;;;0.55;0.55;;;16.80;60.30;;;;;;5053000;28;20029;-75
2021/05/29 09:03:12;;;;;;;0.10;0.10;;;16.90;59.80;;;;;;5054028;28;20031;-76
2021/05/29 09:05:52;;;;;;;0.20;0.20;;;16.90;59.70;;;;;;5053752;28;20025;-76
2021/05/29 09:08:21;;;;;;;0.30;0.20;;;17.10;59.30;;;;;;5052838;28;20036;-77
2021/05/29 09:10:50;;;;;;;0.20;0.20;;;17.00;59.40;;;;;;5052522;28;20032;-76
2021/05/29 09:13:18;;;;;;;1.10;0.95;;;17.20;57.60;;;;;;5053930;28;20016;-76
2021/05/29 09:15:54;;;;;;;0.20;0.20;;;17.50;56.10;;;;;;5053793;28;20083;-76
2021/05/29 09:18:24;;;;;;;0.20;0.20;;;17.80;55.50;;;;;;5053837;28;20108;-76
2021/05/29 09:20:50;;;;;;;0.20;0.20;;;18.20;54.90;;;;;;5052569;28;20024;-76
2021/05/29 09:23:16;;;;;;;0.10;0.10;;;18.10;54.60;;;;;;5053983;28;20028;-76
2021/05/29 09:25:54;;;;;;;0.13;0.13;;;18.50;55.70;;;;;;5052327;28;20036;-76
2021/05/29 09:28:24;;;;;;;0.10;0.10;;;19.20;52.70;;;;;;5051483;28;20045;-76
2021/05/29 09:30:53;;;;;;;0.20;0.20;;;19.00;51.40;;;;;;5053760;28;20025;-78
2021/05/29 09:33:26;;;;;;;1.75;1.65;;;18.90;51.80;;;;;;5053698;28;20083;-76
2021/05/29 09:36:09;;;;;;;0.10;0.10;;;19.00;51.30;;;;;;5054069;28;20057;-77
2021/05/29 09:38:34;;;;;;;0.80;0.65;;;19.10;51.10;;;;;;5051864;28;20116;-77
2021/05/29 09:41:00;;;;;;;0.10;0.10;;;19.60;50.00;;;;;;5053737;28;20437;-76
2021/05/29 09:43:26;;;;;;;1.88;0.35;;;19.90;48.70;;;;;;5053967;28;20052;-73
2021/05/29 09:46:04;;;;;;;0.10;0.10;;;19.70;48.50;;;;;;5051682;28;20060;-73
2021/05/29 09:48:33;;;;;;;0.20;0.20;;;20.20;47.00;;;;;;5053267;28;20549;-74
2021/05/29 09:51:07;;;;;;;1.20;0.57;;;20.50;45.30;;;;;;5051471;28;20461;-73
2021/05/29 09:53:36;;;;;;;2.35;0.80;;;20.20;44.30;;;;;;5053143;28;20063;-73
2021/05/29 09:56:02;;;;;;;0.10;0.10;;;20.30;46.90;;;;;;5034591;28;20374;-74
2021/05/29 09:58:57;;;;;;;0.20;0.20;;;20.90;45.60;;;;;;5053163;28;20032;-74
2021/05/29 10:01:49;;;;;;;0.30;0.30;;;21.30;45.10;;;;;;5049462;28;20059;-73
2021/05/29 10:04:35;;;;;;;0.30;0.30;;;21.50;42.90;;;;;;5051592;28;20475;-74
2021/05/29 10:07:12;;;;;;;0.10;0.10;;;21.40;41.30;;;;;;5051720;28;20036;-74
2021/05/29 10:09:38;;;;;;;0.10;0.10;;;21.60;41.40;;;;;;5052901;28;20029;-75
2021/05/29 10:12:05;;;;;;;0.20;0.20;;;21.50;41.10;;;;;;5052859;28;20110;-74
2021/05/29 10:14:31;;;;;;;0.20;0.20;;;21.50;41.40;;;;;;5051562;28;20107;-74
2021/05/29 10:17:08;;;;;;;0.00;0.00;;;21.60;43.20;;;;;;5052556;28;20068;-74
2021/05/29 10:19:37;;;;;;;0.10;0.10;;;21.80;42.90;;;;;;5052627;28;20082;-74
2021/05/29 10:22:07;;;;;;;0.20;0.20;;;21.00;44.40;;;;;;5052233;28;20087;-74
2021/05/29 10:24:33;;;;;;;0.10;0.10;;;20.20;45.50;;;;;;5051581;28;20029;-74
2021/05/29 10:27:04;;;;;;;0.95;0.45;;;19.40;48.60;;;;;;5051128;28;20025;-75
2021/05/29 10:29:30;;;;;;;0.52;0.52;;;19.50;48.70;;;;;;5052754;28;20024;-74
2021/05/29 10:32:16;;;;;;;0.30;0.25;;;20.60;48.30;;;;;;5052553;28;20025;-74
2021/05/29 10:34:56;;;;;;;0.43;0.43;;;21.10;47.60;;;;;;5051379;28;20083;-74
2021/05/29 10:37:36;;;;;;;0.20;0.20;;;21.10;44.50;;;;;;5051107;28;20062;-73
2021/05/29 10:40:23;;;;;;;0.10;0.10;;;21.10;44.50;;;;;;5052241;28;20059;-74
2021/05/29 10:43:31;;;;;;;0.20;0.20;;;21.70;44.30;;;;;;5052376;28;20069;-74
2021/05/29 10:45:56;;;;;;;0.63;0.40;;;20.90;44.90;;;;;;5012639;28;20033;-74
2021/05/29 10:48:24;;;;;;;0.10;0.10;;;21.00;45.30;;;;;;5051043;28;20054;-74
2021/05/29 10:51:11;;;;;;;0.20;0.20;;;21.50;44.20;;;;;;5050843;28;20108;-74
2021/05/29 10:53:48;;;;;;;0.30;0.30;;;21.50;42.50;;;;;;5051040;28;20107;-74
2021/05/29 10:56:23;;;;;;;0.10;0.10;;;21.50;42.30;;;;;;5051985;28;20386;-74
2021/05/29 10:59:00;;;;;;;0.20;0.20;;;21.40;42.40;;;;;;5051953;28;20017;-74
2021/05/29 11:01:32;;;;;;;0.32;0.30;;;20.80;43.40;;;;;;5033677;28;20109;-73
2021/05/29 11:04:21;;;;;;;;;;;19.90;44.00;;;;;;5084695;22;20041;-73
2021/05/29 11:06:51;;;;;;;0.10;0.10;;;19.50;46.20;;;;;;5051990;28;19984;-73
2021/05/29 11:09:37;;;;;;;0.10;0.10;;;19.30;46.10;;;;;;5033964;28;20071;-73
2021/05/29 11:12:05;;;;;;;0.10;0.10;;;19.30;46.70;;;;;;5036473;28;20060;-73
2021/05/29 11:14:48;;;;;;;0.10;0.10;;;19.30;46.50;;;;;;5051777;28;20025;-73
2021/05/29 11:17:17;;;;;;;0.55;0.47;;;19.10;46.40;;;;;;5033867;28;20036;-73
2021/05/29 11:19:59;;;;;;;0.20;0.20;;;19.00;46.40;;;;;;5051778;28;20029;-73
2021/05/29 11:22:25;;;;;;;;;;;18.90;47.20;;;;;;5052138;28;20067;-73
2021/05/29 11:24:56;;;;;;;0.10;0.10;;;19.50;47.00;;;;;;5051596;28;20372;-73
2021/05/29 11:27:34;;;;;;;0.10;0.10;;;20.00;44.90;;;;;;5051698;28;20017;-73
2021/05/29 11:30:13;;;;;;;7.22;1.50;;;20.70;44.90;;;;;;5051726;28;20500;-74
2021/05/29 11:35:45;;;;;;;0.47;0.47;;;21.60;41.60;;;;;;5055826;28;20029;-73
2021/05/29 11:41:08;;;;;;;0.30;0.30;;;21.00;42.60;;;;;;5055647;28;20021;-73
2021/05/29 11:43:50;;;;;;;0.10;0.10;;;21.10;42.20;;;;;;5037774;28;20032;-73
2021/05/29 11:46:17;;;;;;;1.52;1.45;;;20.60;43.10;;;;;;5055569;28;20487;-73
2021/05/29 11:48:46;;;;;;;0.10;0.10;;;20.90;42.70;;;;;;5055597;28;20108;-73
2021/05/29 11:51:14;;;;;;;0.28;0.28;;;20.30;43.70;;;;;;5025711;28;20031;-73
2021/05/29 11:53:53;;;;;;;0.10;0.10;;;20.00;43.30;;;;;;5021045;28;20602;-73
2021/05/29 11:56:40;;;;;;;0.10;0.10;;;19.50;44.40;;;;;;5055327;28;20028;-73
2021/05/29 11:59:09;;;;;;;0.20;0.20;;;20.20;43.20;;;;;;5055262;28;20064;-73
2021/05/29 12:01:44;;;;;;;0.10;0.10;;;20.30;40.30;;;;;;5055252;28;20056;-73
2021/05/29 12:04:11;;;;;;;0.10;0.10;;;20.40;40.80;;;;;;5055204;28;20024;-73
2021/05/29 12:06:46;;;;;;;0.20;0.20;;;20.30;40.90;;;;;;5055285;28;20029;-73
2021/05/29 12:09:17;;;;;;;0.10;0.10;;;20.40;40.70;;;;;;5037336;28;20135;-73
2021/05/29 12:11:52;;;;;;;0.30;0.30;;;20.80;40.50;;;;;;5037103;28;20028;-73
2021/05/29 12:14:17;;;;;;;0.00;0.00;;;20.70;40.80;;;;;;5054995;28;20041;-73
2021/05/29 12:16:56;;;;;;;0.20;0.20;;;20.50;42.80;;;;;;5037277;28;20037;-73
2021/05/29 12:19:42;;;;;;;0.10;0.10;;;20.20;41.70;;;;;;5054929;28;20033;-74
2021/05/29 12:22:10;;;;;;;0.77;0.70;;;20.10;42.40;;;;;;5054759;28;20041;-73
2021/05/29 12:24:54;;;;;;;0.10;0.10;;;20.20;42.20;;;;;;5036969;28;20029;-74
2021/05/29 12:27:22;;;;;;;0.10;0.10;;;20.40;41.90;;;;;;5037026;28;20029;-73
2021/05/29 12:29:48;;;;;;;0.40;0.40;;;20.50;40.30;;;;;;5054765;28;20135;-74
2021/05/29 12:32:41;;;;;;;0.20;0.20;;;20.60;40.00;;;;;;5036470;28;20036;-73
2021/05/29 12:35:13;;;;;;;0.10;0.10;;;20.60;39.80;;;;;;5051625;28;20496;-73
2021/05/29 12:37:39;;;;;;;0.20;0.20;;;20.40;40.40;;;;;;5054772;28;20118;-73
2021/05/29 12:40:08;;;;;;;0.10;0.10;;;20.70;41.60;;;;;;5054529;28;20493;-73
2021/05/29 12:42:38;;;;;;;0.10;0.10;;;20.80;39.90;;;;;;5054520;28;20020;-73
2021/05/29 12:45:15;;;;;;;0.50;0.50;;;20.80;41.80;;;;;;5054189;28;20074;-73
2021/05/29 12:47:52;;;;;;;0.10;0.10;;;20.40;41.60;;;;;;5054619;28;20080;-73
2021/05/29 12:50:18;;;;;;;0.10;0.10;;;20.10;43.10;;;;;;5019955;28;20025;-73
2021/05/29 12:52:44;;;;;;;0.10;0.10;;;20.00;44.00;;;;;;5054415;28;20029;-73
2021/05/29 12:55:37;;;;;;;0.20;0.20;;;19.90;44.10;;;;;;5036464;28;20119;-73
2021/05/29 12:58:17;;;;;;;0.70;0.68;;;20.00;43.70;;;;;;5051009;28;20068;-73
2021/05/29 13:01:01;;;;;;;0.20;0.20;;;19.90;44.20;;;;;;5054197;28;20120;-74
2021/05/29 13:11:42;;;;;;;1.00;0.52;;;19.90;42.00;;;;;;5054030;28;20036;-73
2021/05/29 13:14:10;;;;;;;1.38;1.27;;;19.80;43.10;;;;;;5053939;28;20033;-73
2021/05/29 13:16:55;;;;;;;0.20;0.20;;;19.60;42.40;;;;;;5036077;28;20025;-73
2021/05/29 13:19:42;;;;;;;2.22;0.17;;;19.60;40.70;;;;;;5036155;28;20104;-73